Pagrindinis puslapis
METAR-TAF:

METAR-TAF

Oro uostai :

Liubliana, Slovėnija

platuma: 46-13N, ilguma: 014-29E, Aukštis: 385 m

Dabartinis oras

Ataskaita buvo paskelbta 13 minutes, ne 18:30 UTC
Vėjas 5 kt iš Pietryčių
Temperatūra 11°C
Drėgmė 76%
Slėgis 1025 hPa
Matomumas 10 km arba daugiau
Mažai debesys ne aukštis 5000 ft

METAR: LJLJ 191830Z 14005KT 9999 FEW050 11/07 Q1025 NOSIG

Laikas: 20:43 (18:43 UTC)

Prognozė

Ataskaita buvo paskelbta 1 valandą ir 43 minutes, ne 17:00 UTC
Prognozė galioja nuo 19 metu 18 UTC su 20 metu 18 UTC
Vėjas 5 kt iš Rytų/Pietryčių
Matomumas 10 km arba daugiau
Mažai debesys ne aukštis 5000 ft
Laikinai
nuo 19 metu 18 UTC su 19 metu 20 UTC
Vėjas 11 kt iš Rytų/Pietryčių
Laikinai
nuo 20 metu 10 UTC su 20 metu 17 UTC
Vėjas 10 kt iš Rytų/Pietryčių

TAF: LJLJ 191700Z 1918/2018 11005KT 9999 FEW050 TEMPO 1918/1920 11011KT TEMPO 2010/2017 11010KT

Orai ataskaitas ir orų prognozės (METAR, TAF).

turimą stotys yra geltonos ir raudonos taškus žemėlapyje.

Perkelti pele per norėdami pamatyti stoties vardą.

Tada spustelėkite, norėdami matyti oro stebėjimo ir prognozės.

Norėdami pakeisti žemėlapį: spustelėkite ant žalios mygtukų su juodo kryžiaus žemyn,; žalią mygtuką su brūkšneliu, jei norite nutolinti; arba žalių rodyklių gretimoms žemėlapius.


METAR-TAF: